Tiempo atmosférico en la estación meteorológica de Castellón de la Plana, Almazora, Castelló/Castellón (35 m.)



Fecha
DESCASC
Temp. máxima en grados centígrados (hora)
DESCASC
Temp. mínima en grados centígrados (hora)
DESCASC
Temp. media en grados centígrados
DESCASC
Racha de viento máxima en m/sg (hora)
DESCASC
Velocidad máxima media en intervalos de 10 minutos(hora)
DESCASC
Precipitaciones diarias en mm
DESCASC
Precipitaciones de 00:00 a 06:00 en mm
DESCASC
Precipitaciones de 06:00 a 12:00 en mm
DESCASC
Precipitaciones de 12:00 a 18:00 en mm
DESCASC
Precipitaciones de 18:00 a 24:00 en mm
DESCASC

Gráficas

Temp. máximas Temp. mínimas Temp. medias Precipitaciones Rachas de viento máximas Velocidades máximas media en intervalos de 10 minutos

Datos horarios

Fecha y hora oficial Temperatura (ºC) Velocidad del viento (km/h) Dirección del viento Racha (km/h) Dirección de racha Precipitación (mm) Presión (hPa) Tendencia (hPa) Humedad (%)
2020-11-23 23:00:00 9.9 8 Noroeste 14 Oeste 0 1021.5 -0.1 88
2020-11-23 22:00:00 10.3 8 Oeste 12 Oeste 0 1021.7 0.1 87
2020-11-23 21:00:00 10.9 6 Noroeste 10 Oeste 0 1021.8 0.6 85
2020-11-23 20:00:00 11.7 4 Noroeste 7 Noroeste 0 1021.6 0.6 82
2020-11-23 19:00:00 12.8 0 Calma 4 Sudeste 0 1021.6 0.7 80
2020-11-23 18:00:00 13.8 2 Sudeste 12 Sudeste 0 1021.2 0.2 75
2020-11-23 17:00:00 15.3 6 Sur 16 Sudeste 0 1021 -0.5 68
2020-11-23 16:00:00 16 8 Sur 18 Sur 0 1020.9 -1.3 63
2020-11-23 15:00:00 16.5 9 Sur 18 Sudeste 0 1021 -- 59
2020-11-23 14:00:00 16.7 10 Sur 19 Sur 0 1021.5 -2 57
2020-11-23 13:00:00 17.2 8 Sur -- -- -- 1022.2 -1.2 56
2020-11-23 12:00:00 -- -- -- -- -- -- -- -- --
2020-11-23 11:00:00 13.1 6 Oeste 17 Oeste 0 1023.5 0.8 71
2020-11-23 10:00:00 10.4 12 Oeste 22 Noroeste 0 1023.4 0.8 75
2020-11-23 09:00:00 8.7 12 Oeste 24 Oeste 0 1023.1 0.6 77
2020-11-23 08:00:00 8.2 13 Oeste 22 Oeste 0 1022.7 0.4 80
2020-11-23 07:00:00 7.9 12 Oeste 22 Oeste 0 1022.6 0.2 82
2020-11-23 06:00:00 8.1 14 Oeste 20 Noroeste 0 1022.5 0.1 83
2020-11-23 05:00:00 8.4 11 Oeste 17 Oeste 0 1022.3 -- 85
2020-11-23 04:00:00 8.3 9 Oeste 18 Oeste 0 1022.4 -- 85
2020-11-23 03:00:00 8.4 10 Oeste 18 Oeste 0 1022.4 -- 86
2020-11-23 02:00:00 8.4 9 Oeste 15 Noroeste 0 1022.4 -- 88
2020-11-23 01:00:00 8.7 7 Noroeste 14 Noroeste 0 1022.6 -- 88
2020-11-23 00:00:00 9.1 9 Oeste 16 Noroeste 0 1022.7 -- 86
2020-11-22 23:00:00 9.5 7 Oeste 12 Oeste 0 1022.6 -- 86
2020-11-22 22:00:00 9.9 8 Oeste 13 Oeste 0 1022.6 -- 85
2020-11-22 21:00:00 10.4 6 Oeste 10 Oeste 0 1022.4 -- 84
2020-11-22 20:00:00 11.2 4 Noroeste 6 Noroeste 0 1022.3 -- 81
2020-11-22 19:00:00 12.3 0 Calma 3 Sur 0 1021.8 -- 77
2020-11-22 18:00:00 13.5 2 Sudeste 9 Sudeste 0 1021.5 -- 72
2020-11-22 17:00:00 14.9 6 Sudeste 14 Sur 0 1021.1 -- 66
2020-11-22 16:00:00 15.8 7 Sur 15 Sur 0 1020.8 -- 61
2020-11-22 15:00:00 16 7 Sudeste 17 Sudeste 0 1020.9 -- 58
2020-11-22 14:00:00 16.5 8 Sudeste 17 Sudoeste 0 1021.4 -- 57
2020-11-22 13:00:00 16.8 7 Sur 17 Sur 0 1021.9 -- 55
2020-11-22 12:00:00 15.4 8 Sudoeste 14 Sudoeste 0 1022.9 -- 59
2020-11-22 11:00:00 12.9 8 Oeste 17 Noroeste 0 1023.4 -- 61
2020-11-22 10:00:00 9.9 11 Oeste 24 Oeste 0 1023.4 -- 69
2020-11-22 09:00:00 7.8 13 Oeste 23 Oeste 0 1023.4 -- 71
2020-11-22 08:00:00 7.1 11 Noroeste 22 Noroeste 0 1023.3 -- 74
2020-11-22 07:00:00 7.7 13 Oeste 24 Noroeste 0 1023.1 -- 70
2020-11-22 06:00:00 7.5 11 Oeste 20 Oeste 0 1023 -- 80
2020-11-22 05:00:00 7.6 9 Oeste 17 Oeste 0 1022.7 -- 86
2020-11-22 04:00:00 8.2 7 Oeste 15 Noroeste 0 1022.6 -- 84
2020-11-22 03:00:00 9.2 6 Noroeste 11 Oeste 0 1022.7 -- 81
2020-11-22 02:00:00 9.4 4 Noroeste 11 Noroeste 0 1022.7 -- 83
2020-11-22 01:00:00 9.9 8 Oeste 13 Oeste 0 1023.3 -- 83
2020-11-22 00:00:00 10.7 6 Noroeste 13 Oeste 0 1024 -- 78
2020-11-21 23:00:00 10.9 9 Oeste 13 Oeste 0 1024.4 -- 78
2020-11-21 22:00:00 11.8 5 Noroeste 10 Noroeste 0 1024.3 -- 75
2020-11-21 21:00:00 12.1 5 Oeste 9 Oeste 0 1024.3 -- 75
2020-11-21 20:00:00 11.7 5 Noroeste 8 Noroeste 0 1023.8 -- 75
2020-11-21 19:00:00 13.2 3 Norte 6 Norte 0 1023.8 -- 67
2020-11-21 18:00:00 13.9 2 Este 10 Este 0 1023.5 -- 67
2020-11-21 17:00:00 15.2 4 Este 13 Este 0 1023.1 -- 62
2020-11-21 16:00:00 15.8 9 Este 17 Este 0 1022.9 -- 59
2020-11-21 15:00:00 16.2 8 Este 20 Este 0 1022.8 -- 57
2020-11-21 14:00:00 16.2 10 Este 19 Este 0 1023 -- 53
2020-11-21 13:00:00 16.6 6 Este 13 Sudeste 0 1023.4 -- 49
2020-11-21 12:00:00 15.6 6 Nordeste 14 Nordeste 0 1023.9 -- 49
2020-11-21 11:00:00 13.6 6 Oeste 13 Oeste 0 1024.1 -- 44
2020-11-21 10:00:00 10.6 10 Oeste 17 Oeste 0 1023.7 -- 54
2020-11-21 09:00:00 8.8 10 Noroeste 21 Oeste 0 1023.2 -- 58
2020-11-21 08:00:00 7.7 10 Oeste 19 Oeste 0 1022.5 -- 63
2020-11-21 07:00:00 8.1 9 Noroeste 22 Noroeste 0 1022.1 -- 63
2020-11-21 06:00:00 8.3 11 Oeste 22 Noroeste 0 1021.9 -- 63
2020-11-21 05:00:00 8.6 12 Oeste 18 Oeste 0 1021.7 -- 63
2020-11-21 04:00:00 9.2 7 Noroeste 19 Noroeste 0 1021.6 -- 58
2020-11-21 03:00:00 9.3 9 Oeste 17 Oeste 0 1021.7 -- 64
2020-11-21 02:00:00 10.1 9 Oeste 15 Noroeste 0 1021.7 -- 60
2020-11-21 01:00:00 10.1 8 Noroeste 16 Noroeste 0 1022 -- 64
2020-11-21 00:00:00 10.6 8 Oeste 17 Oeste 0 1021.9 -- 67
2020-11-20 23:00:00 10.9 10 Oeste 20 Noroeste 0 1021.6 -- 69
2020-11-20 22:00:00 11.1 8 Oeste 14 Noroeste 0 1021.6 -- 70
2020-11-20 21:00:00 11.8 8 Oeste 13 Noroeste 0 1021.4 -- 70
2020-11-20 20:00:00 12.5 5 Noroeste 10 Noroeste 0 1021.1 -- 67
2020-11-20 19:00:00 14.4 3 Sudoeste 9 Sur 0 1020.7 -- 64
2020-11-20 18:00:00 15.5 4 Sur 13 Sur 0 1020.5 -- 53
2020-11-20 17:00:00 17.1 8 Sur 15 Sur 0 1020.3 -- 41
2020-11-20 16:00:00 17.9 10 Sur 18 Sudeste 0 1020.2 -- 36
2020-11-20 15:00:00 18.5 12 Sudeste 32 Este 0 1020.7 -- 39
2020-11-20 14:00:00 19.1 3 Sudeste 14 Nordeste 0 1021 -- 27
2020-11-20 13:00:00 19.5 9 Oeste 17 Oeste 0 1022.1 -- 26
2020-11-20 12:00:00 18.2 5 Norte 15 Norte 0 1023.1 -- 27
2020-11-20 11:00:00 16.5 4 Noroeste 12 Noroeste 0 1023.2 -- 34
2020-11-20 10:00:00 13.7 7 Noroeste 16 Noroeste 0 1023.1 -- 50
2020-11-20 09:00:00 10.9 7 Noroeste 15 Noroeste 0 1022.6 -- 64
2020-11-20 08:00:00 11.5 5 Noroeste 14 Noroeste 0 1022 -- 62
2020-11-20 07:00:00 11.5 7 Noroeste 17 Noroeste 0 1021.7 -- 64
2020-11-20 06:00:00 11.6 7 Noroeste 18 Oeste 0 1021.8 -- 64
2020-11-20 05:00:00 12.1 5 Noroeste 18 Noroeste 0 1021.7 -- 68
2020-11-20 04:00:00 12.5 12 Oeste 19 Oeste 0 1022.3 -- 68
2020-11-20 03:00:00 12.6 6 Noroeste 15 Noroeste 0 1022.6 -- 71
2020-11-20 02:00:00 14.3 8 Noroeste 19 Oeste 0 1022.7 -- 67
2020-11-20 01:00:00 13.5 9 Oeste 17 Noroeste 0 1023.3 -- 76
2020-11-20 00:00:00 14 5 Noroeste 9 Noroeste 0 1023.1 -- 78
2020-11-19 23:00:00 14.7 4 Noroeste 11 Sudoeste 0 1023.5 -- 86
2020-11-19 22:00:00 15.6 5 Oeste 8 Noroeste 0 1023.5 -- 84
2020-11-19 21:00:00 16 5 Oeste 10 Noroeste 0 1023.5 -- 84
2020-11-19 20:00:00 16.7 4 Noroeste 8 Oeste 0 1023.8 -- 79
2020-11-19 19:00:00 17.3 3 Noroeste 7 Sur 0 1023.4 -- 76
2020-11-19 18:00:00 18.2 4 Sur 6 Sur 0 1022.8 -- 71
2020-11-19 17:00:00 19.6 4 Sur 14 Sur 0 1022.6 -- 65
2020-11-19 16:00:00 20.3 6 Sur 16 Sudeste 0 1022.4 -- 64
2020-11-19 15:00:00 20.8 8 Sur 15 Sudoeste 0 1022.6 -- 64
2020-11-19 14:00:00 21 7 Sur 13 Sur 0 1023.3 -- 63
2020-11-19 13:00:00 20.8 5 Sudoeste 13 Sudeste 0 1024 -- 59
2020-11-19 12:00:00 19.4 6 Sur 11 Sudeste 0 1024.8 -- 68
2020-11-19 11:00:00 17.1 0 Calma 8 Noroeste 0 1025.1 -- 76
2020-11-19 10:00:00 14.8 4 Noroeste 14 Oeste 0 1024.7 -- 82
2020-11-19 09:00:00 13.3 9 Oeste 18 Oeste 0 1024.1 -- 86
2020-11-19 08:00:00 13.1 12 Oeste 22 Oeste 0 1023.5 -- 87
2020-11-19 07:00:00 13.3 10 Oeste 19 Oeste 0 1023 -- 87
2020-11-19 06:00:00 14.2 10 Noroeste 18 Oeste 0 1022.7 -- 85
2020-11-19 05:00:00 14.7 9 Oeste 16 Oeste 0 1022.6 -- 87
2020-11-19 04:00:00 15 10 Oeste 17 Oeste 0 1022.5 -- 85
2020-11-19 03:00:00 14.7 5 Noroeste 11 Oeste 0 1022.5 -- 89
2020-11-19 02:00:00 14 4 Noroeste 9 Oeste 0 1022.3 -- 92
2020-11-19 01:00:00 13.6 5 Oeste 9 Noroeste 0 1022.5 -- 93
2020-11-19 00:00:00 13.6 4 Noroeste 9 Noroeste 0 1022.5 -- 91
2020-11-18 23:00:00 13.7 5 Noroeste 8 Norte 0 1022.5 -- 91
2020-11-18 22:00:00 14.2 3 Noroeste 8 Noroeste 0 1022.3 -- 90
2020-11-18 21:00:00 14.8 4 Noroeste 8 Noroeste 0 1021.8 -- 88
2020-11-18 20:00:00 15.8 0 Calma 4 Sudeste 0 1021.7 -- 88
2020-11-18 19:00:00 16.5 0 Calma 6 Este 0 1021.2 -- 87
2020-11-18 18:00:00 17.3 4 Este 8 Sudeste 0 1020.9 -- 83
2020-11-18 17:00:00 18.4 6 Sudeste 13 Sudoeste 0 1020.6 -- 76
2020-11-18 16:00:00 19.2 7 Sur 14 Sur 0 1020.5 -- 72
2020-11-18 15:00:00 19.5 6 Sudeste 16 Sur 0 1020.5 -- 70
2020-11-18 14:00:00 20.3 8 Sur 18 Sur 0 1021 -- 68
2020-11-18 13:00:00 19.9 6 Sur 11 Sudoeste 0 1021.7 -- 69
2020-11-18 12:00:00 18.8 4 Sudoeste 9 Sudoeste 0 1022.4 -- 71
2020-11-18 11:00:00 17.5 3 Sudoeste 10 Noroeste 0 1022.5 -- 74
2020-11-18 10:00:00 15.4 5 Oeste 17 Oeste 0 1022.3 -- 79
2020-11-18 09:00:00 14.6 9 Oeste 18 Oeste 0 1022 -- 77
2020-11-18 08:00:00 14.8 6 Noroeste 16 Noroeste 0 1021.6 -- 83
2020-11-18 07:00:00 15 9 Noroeste 18 Oeste 0 1021.3 -- 83
2020-11-18 06:00:00 15.1 8 Oeste 15 Noroeste 0 1021.2 -- 88
2020-11-18 05:00:00 14.9 9 Oeste 13 Oeste 0 1021.2 -- 91
2020-11-18 04:00:00 14.5 4 Oeste 8 Oeste 0 1021.3 -- 95
2020-11-18 03:00:00 13.1 4 Noroeste 6 Noroeste 0 1021.2 -- 95
2020-11-18 02:00:00 13.2 3 Noroeste 7 Noroeste 0 1021.1 -- 94
2020-11-18 01:00:00 13.7 4 Noroeste 7 Noroeste 0 1021.2 -- 93
2020-11-18 00:00:00 14.3 4 Noroeste 5 Noroeste 0 1021.4 -- 93
2020-11-17 23:00:00 14.9 4 Noroeste 6 Noroeste 0 1021.6 -- 91
2020-11-17 22:00:00 15.6 0 Calma 4 Oeste 0 1021.5 -- 89
2020-11-17 21:00:00 16.3 2 Norte 6 Nordeste 0 1021.4 -- 87
2020-11-17 20:00:00 16.4 3 Nordeste 9 Nordeste 0 1021.3 -- 86
2020-11-17 19:00:00 16.4 4 Nordeste 8 Nordeste 0 1020.8 -- 87
2020-11-17 18:00:00 17 4 Nordeste 9 Nordeste 0 1020.7 -- 85
2020-11-17 17:00:00 17.9 4 Este 14 Sudeste 0 1020.4 -- 82
2020-11-17 16:00:00 18.3 8 Este 15 Este 0 1020.1 -- 81
2020-11-17 15:00:00 19.5 8 Este 19 Sudeste 0 1020 -- 76
2020-11-17 14:00:00 19.2 7 Sudeste 19 Este 0 1020.2 -- 77
2020-11-17 13:00:00 19.4 8 Este 16 Este 0 1020.5 -- 74
2020-11-17 12:00:00 19.5 6 Sudeste 12 Sudeste 0 1021 -- 62
2020-11-17 11:00:00 17.3 3 Norte 10 Oeste 0 1021.3 -- 70
2020-11-17 10:00:00 14.9 6 Oeste 14 Oeste 0 1021.2 -- 83
2020-11-17 09:00:00 13.5 7 Noroeste 18 Noroeste 0 1020.9 -- 87
2020-11-17 08:00:00 13 6 Noroeste 18 Noroeste 0 1020.2 -- 86
2020-11-17 07:00:00 13.3 10 Oeste 18 Noroeste 0 1019.9 -- 85
2020-11-17 06:00:00 13.4 9 Oeste 14 Oeste 0 1019.6 -- 89
2020-11-17 05:00:00 13.6 7 Oeste 11 Noroeste 0 1019.5 -- 90
2020-11-17 04:00:00 14 4 Noroeste 11 Oeste 0 1019.5 -- 90
2020-11-17 03:00:00 14.7 6 Oeste 9 Oeste 0 1019.6 -- 91
2020-11-17 02:00:00 14.5 4 Noroeste 8 Noroeste 0 1019.7 -- 92
2020-11-17 01:00:00 15.5 4 Noroeste 5 Noroeste 0 1019.6 -- 91
2020-11-17 00:00:00 16.7 3 Norte 4 Norte 0 1020 -- 89
2020-11-16 23:00:00 17.5 2 Noroeste 6 Sudoeste 0 1020 -- 88
2020-11-16 22:00:00 17.9 4 Sudoeste 6 Sur 0 1019.8 -- 87
2020-11-16 21:00:00 18.3 3 Sur 7 Sur 0 1019.2 -- 84
2020-11-16 20:00:00 18.5 2 Sudeste 8 Sudeste 0 1019.2 -- 83
2020-11-16 19:00:00 18.6 5 Este 9 Sudeste 0 1018.9 -- 81
2020-11-16 18:00:00 18.9 4 Este 11 Este 0 1018.3 -- 77
2020-11-16 17:00:00 19.2 5 Nordeste 21 Este 0 1017.6 -- 71
2020-11-16 16:00:00 19.8 9 Este 26 Sudeste 0 1016.5 -- 66
2020-11-16 15:00:00 20.6 14 Este 28 Este 0 1016.2 -- 68
2020-11-16 14:00:00 22.2 12 Este 24 Este 0 1015.7 -- 54
2020-11-16 13:00:00 23.2 9 Sudeste 20 Sur 0 1015.7 -- 53
2020-11-16 12:00:00 22.3 8 Sur 16 Sur 0 1015.9 -- 63
2020-11-16 11:00:00 21.5 5 Sudeste 15 Oeste 0 1015.8 -- 60
2020-11-16 10:00:00 18.8 4 Norte 15 Noroeste 0 1015.1 -- 69
2020-11-16 09:00:00 16.8 8 Noroeste 15 Oeste 0 1014.5 -- 73
2020-11-16 08:00:00 16.2 6 Noroeste 12 Noroeste 0 1013.6 -- 77
2020-11-16 07:00:00 16.9 9 Oeste 18 Oeste 0 1012.7 -- 75
2020-11-16 06:00:00 18 10 Oeste 17 Oeste 0 1012.1 -- 72
2020-11-16 05:00:00 18.2 8 Oeste 12 Oeste 0 1011.9 -- 70
2020-11-16 04:00:00 18.4 6 Noroeste 15 Oeste 0 1012.3 -- 70
2020-11-16 03:00:00 19.2 9 Oeste 16 Oeste 0 1012.5 -- 68
2020-11-16 02:00:00 18.2 4 Noroeste 18 Sudoeste 0 1012.9 -- 73
2020-11-16 01:00:00 18.9 10 Sudoeste 19 Sudoeste 0 1013.1 -- 70
2020-11-16 00:00:00 19 10 Sudoeste 14 Sudoeste 0 1013 -- 71
2020-11-15 23:00:00 18.9 5 Sudoeste 9 Sudoeste 0 1013.1 -- 71
2020-11-15 22:00:00 20 7 Sudoeste 19 Sur 0 1013.1 -- 66
2020-11-15 21:00:00 20.2 12 Sudoeste 22 Sudoeste 0 1013 -- 65
2020-11-15 20:00:00 20.2 11 Sudoeste 18 Sudoeste 0 1012.9 -- 64
2020-11-15 19:00:00 20.6 9 Sudoeste 15 Oeste 0 1012.6 -- 64
2020-11-15 18:00:00 20.5 3 Oeste 10 Este 0 1012.1 -- 66
2020-11-15 17:00:00 21.6 5 Nordeste 10 Sudeste 0 1011.8 -- 62
2020-11-15 16:00:00 22 4 Sudeste 8 Sudeste 0 1011.7 -- 58
2020-11-15 15:00:00 21.6 2 Sudeste 15 Este 0 1011.9 -- 58
2020-11-15 14:00:00 21.3 7 Sudeste 14 Este 0 1012.6 -- 60
2020-11-15 13:00:00 21.4 6 Sudeste 13 Este 0 1013.2 -- 62
2020-11-15 12:00:00 19.8 2 Nordeste 6 Nordeste 0 1014.2 -- 66
2020-11-15 11:00:00 17.2 3 Sudeste 7 Sudeste 0 1014.2 -- 82
2020-11-15 10:00:00 15.3 4 Nordeste 6 Nordeste 0 1014.2 -- 94
2020-11-15 09:00:00 13.2 4 Noroeste 9 Noroeste 0 1014.3 -- 92
2020-11-15 08:00:00 12.8 4 Noroeste 11 Oeste 0 1013.7 -- 93
2020-11-15 07:00:00 12.6 4 Oeste 11 Oeste 0 1013.1 -- 95
2020-11-15 06:00:00 12.7 6 Oeste 11 Oeste 0 1013 -- 95
2020-11-15 05:00:00 13 5 Noroeste 9 Noroeste 0 1012.9 -- 95
2020-11-15 04:00:00 13.2 5 Noroeste 12 Noroeste 0 1013.4 -- 95
2020-11-15 03:00:00 13.5 6 Oeste 11 Noroeste 0 1013.5 -- 96
2020-11-15 02:00:00 13.8 5 Noroeste 9 Oeste 0 1013.7 -- 95
2020-11-15 01:00:00 14.6 2 Norte 8 Oeste 0 1014.1 -- 94
2020-11-15 00:00:00 15.3 4 Noroeste 6 Noroeste 0 1014.5 -- 94
2020-11-14 23:00:00 15.5 3 Noroeste 6 Oeste 0 1015 -- 93
2020-11-14 22:00:00 15.8 0 Calma 5 Norte 0 1014.9 -- 92
2020-11-14 21:00:00 16.4 3 Noroeste 4 Noroeste 0 1014.8 -- 90
2020-11-14 20:00:00 16.6 0 Calma 3 Nordeste 0 1015 -- 90
2020-11-14 19:00:00 16.8 0 Calma 3 Este 0 1014.6 -- 89
2020-11-14 18:00:00 17 2 Este 4 Sudeste 0 1014.4 -- 88
2020-11-14 17:00:00 17.5 0 Calma 7 Sur 0 1014.4 -- 86
2020-11-14 16:00:00 17.8 4 Sudeste 10 Sudeste 0 1014.4 -- 82
2020-11-14 15:00:00 18.3 5 Sur 9 Sur 0 1014.4 -- 78
2020-11-14 14:00:00 18.6 5 Sudeste 10 Sudeste 0 1014.6 -- 75
2020-11-14 13:00:00 18.8 5 Sudeste 11 Sur 0 1015.3 -- 75
2020-11-14 12:00:00 18 4 Sur 9 Sur 0 1016.1 -- 76
2020-11-14 11:00:00 16.6 2 Noroeste 5 Oeste 0 1016.4 -- 78
2020-11-14 10:00:00 15 4 Oeste 10 Noroeste 0 1016.2 -- 89
2020-11-14 09:00:00 13.5 4 Noroeste 11 Noroeste 0 1016 -- 91
2020-11-14 08:00:00 13.6 4 Noroeste 8 Noroeste 0 1015.4 -- 90
2020-11-14 07:00:00 14.2 5 Noroeste 14 Oeste 0 1015.1 -- 89
2020-11-14 06:00:00 14.2 9 Oeste 13 Oeste 0 1015 -- 90
2020-11-14 05:00:00 14.5 7 Oeste 11 Oeste 0 1014.9 -- 90
2020-11-14 04:00:00 14.2 4 Noroeste 8 Oeste 0 1015 -- 93
2020-11-14 03:00:00 14.4 4 Noroeste 8 Oeste 0 1015.8 -- 93
2020-11-14 02:00:00 14.5 4 Oeste 7 Oeste 0 1015.9 -- 93
2020-11-14 01:00:00 14.5 4 Noroeste 7 Noroeste 0 1016.3 -- 92
2020-11-14 00:00:00 15 4 Noroeste 7 Oeste 0 1016.5 -- 91
2020-11-13 23:00:00 15.4 4 Noroeste 6 Noroeste 0 1016.5 -- 91
2020-11-13 22:00:00 15.9 3 Noroeste 7 Noroeste 0 1016.4 -- 89
2020-11-13 21:00:00 16.4 4 Oeste 6 Oeste 0 1016.1 -- 90
2020-11-13 20:00:00 16.5 2 Noroeste 5 Nordeste 0 1015.8 -- 91
2020-11-13 19:00:00 16.7 3 Nordeste 5 Este 0 1015.5 -- 91
2020-11-13 18:00:00 17 3 Este 8 Este 0 1015 -- 88
2020-11-13 17:00:00 17.7 6 Sudeste 14 Este 0 1014.8 -- 85
2020-11-13 16:00:00 18.5 8 Sudeste 16 Este 0 1014.7 -- 81
2020-11-13 15:00:00 19.2 7 Sudeste 15 Este 0 1014.7 -- 74
2020-11-13 14:00:00 19.1 6 Sudeste 13 Este 0 1014.9 -- 71
2020-11-13 13:00:00 18.7 5 Sudeste 9 Este 0 1015.5 -- 73
2020-11-13 12:00:00 17.5 4 Este 7 Sudeste 0 1016.3 -- 71
2020-11-13 11:00:00 15.5 2 Norte 9 Noroeste 0 1016.3 -- 70
2020-11-13 10:00:00 15 6 Noroeste 17 Noroeste 0 1016.5 -- 69
2020-11-13 09:00:00 13.7 9 Oeste 17 Oeste 0 1016.1 -- 75
2020-11-13 08:00:00 13.2 7 Oeste 17 Oeste 0 1015.6 -- 80
2020-11-13 07:00:00 12.8 6 Noroeste 17 Noroeste 0 1015.4 -- 83
2020-11-13 06:00:00 12.5 7 Oeste 17 Oeste 0 1015.3 -- 86
2020-11-13 05:00:00 12.6 10 Oeste 17 Oeste 0 1015.3 -- 86
2020-11-13 04:00:00 12.4 8 Oeste 18 Oeste 0 1015.7 -- 88
2020-11-13 03:00:00 12.5 10 Oeste 17 Noroeste 0 1016 -- 90
2020-11-13 02:00:00 12.7 9 Oeste 14 Noroeste 0 1016.1 -- 93
2020-11-13 01:00:00 12.6 8 Oeste 14 Noroeste 0 1016.5 -- 91
2020-11-13 00:00:00 13 6 Oeste 13 Noroeste 0 1016.8 -- 91
2020-11-12 23:00:00 13.3 6 Oeste 10 Noroeste 0 1017.1 -- 91
2020-11-12 22:00:00 13.7 6 Oeste 12 Oeste 0 1017 -- 89
2020-11-12 21:00:00 14.5 5 Noroeste 8 Noroeste 0 1016.8 -- 89
2020-11-12 20:00:00 15.8 3 Noroeste 6 Noroeste 0 1016.7 -- 89
2020-11-12 19:00:00 16.3 3 Norte 6 Nordeste 0 1016.6 -- 88
2020-11-12 18:00:00 16.8 3 Nordeste 11 Este 0 1016.2 -- 87
2020-11-12 17:00:00 17.6 7 Este 13 Este 0 1016.3 -- 81
2020-11-12 16:00:00 18 7 Este 13 Sudeste 0 1016 -- 76
2020-11-12 15:00:00 18.7 9 Este 15 Sudeste 0 1016.1 -- 71
2020-11-12 14:00:00 18.7 8 Sudeste 15 Sudeste 0 1016.5 -- 73
2020-11-12 13:00:00 19.6 8 Sudeste 16 Sudeste 0 1017.1 -- 68
2020-11-12 12:00:00 18.8 4 Sudeste 10 Este 0 1018 -- 71
2020-11-12 11:00:00 16.7 4 Este 13 Nordeste 0 1018.1 -- 79
2020-11-12 10:00:00 13.9 5 Noroeste 11 Noroeste 0 1018 -- 79
2020-11-12 09:00:00 12.2 7 Noroeste 15 Noroeste 0 1017.6 -- 83
2020-11-12 08:00:00 11.5 5 Oeste 15 Noroeste 0 1017.2 -- 86
2020-11-12 07:00:00 12.1 11 Oeste 19 Noroeste 0 1016.5 -- 82
2020-11-12 06:00:00 11.9 10 Oeste 18 Oeste 0 1016.6 -- 87
2020-11-12 05:00:00 12.7 8 Noroeste 15 Noroeste 0 1016.5 -- 80
2020-11-12 04:00:00 12.7 5 Noroeste 16 Oeste 0 1016.8 -- 81
2020-11-12 03:00:00 12.4 9 Oeste 16 Oeste 0 1017.5 -- 86
2020-11-12 02:00:00 12.6 10 Oeste 15 Oeste 0 1017.7 -- 86
2020-11-12 01:00:00 12.5 7 Noroeste 14 Noroeste 0 1018.3 -- 88
2020-11-12 00:00:00 12.8 7 Oeste 15 Oeste 0 1018.4 -- 89
2020-11-11 23:00:00 13.1 9 Oeste 15 Oeste 0 1018.4 -- 89
2020-11-11 22:00:00 13.5 4 Noroeste 12 Noroeste 0 1018.3 -- 88
2020-11-11 21:00:00 14.9 7 Oeste 10 Oeste 0 1018.4 -- 87
2020-11-11 20:00:00 15.2 0 Calma 5 Sudoeste 0 1018.4 -- 86
2020-11-11 19:00:00 15.9 2 Norte 7 Sur 0 1017.9 -- 82
2020-11-11 18:00:00 16.7 4 Sur 13 Sur 0 1017.5 -- 78
2020-11-11 17:00:00 18 9 Sur 19 Sur 0 1017.4 -- 71
2020-11-11 16:00:00 18.8 9 Sudeste 20 Sur 0 1017.3 -- 65
2020-11-11 15:00:00 19.1 9 Sudeste 19 Sur 0 1017.5 -- 63
2020-11-11 14:00:00 19.3 9 Sur 18 Sur 0 1018.2 -- 62
2020-11-11 13:00:00 19.9 8 Sudeste 14 Sudeste 0 1018.8 -- 62
2020-11-11 12:00:00 19.3 5 Sur 10 Sur 0 1019.7 -- 62
2020-11-11 11:00:00 17 0 Calma 10 Oeste 0 1020.3 -- 74
2020-11-11 10:00:00 14.5 6 Noroeste 16 Oeste 0 1020.5 -- 76
2020-11-11 09:00:00 12.5 8 Oeste 17 Oeste 0 1020.6 -- 83
2020-11-11 08:00:00 12 9 Oeste 17 Noroeste 0 1020.3 -- 83
2020-11-11 07:00:00 11.9 10 Oeste 16 Noroeste 0 1020.4 -- 84
2020-11-11 06:00:00 12.2 6 Noroeste 15 Oeste 0 1020.3 -- 84
2020-11-11 05:00:00 12.7 9 Oeste 17 Noroeste 0 1020.5 -- 83
2020-11-11 04:00:00 12.6 10 Oeste 15 Oeste 0 1020.8 -- 88
2020-11-11 03:00:00 13.3 9 Oeste 15 Noroeste 0 1020.9 -- 90
2020-11-11 02:00:00 14.1 10 Oeste 15 Oeste 0 1021.3 -- 88
2020-11-11 01:00:00 14.7 4 Noroeste 12 Noroeste 0 1021.6 -- 88
2020-11-11 00:00:00 14.6 7 Oeste 11 Noroeste 0 1021.7 -- 89
2020-11-10 23:00:00 14.9 4 Noroeste 8 Noroeste 0 1021.6 -- 88
2020-11-10 22:00:00 15.1 4 Noroeste 9 Noroeste 0 1021.5 -- 87
2020-11-10 21:00:00 15.9 4 Noroeste 7 Oeste 0 1021.4 -- 82
2020-11-10 20:00:00 16.4 3 Noroeste 6 Nordeste 0 1021 -- 80
2020-11-10 19:00:00 16.6 3 Nordeste 7 Nordeste 0 1020.7 -- 80
2020-11-10 18:00:00 17.4 4 Este 12 Este 0 1020.3 -- 80
2020-11-10 17:00:00 18.3 6 Este 15 Este 0 1019.8 -- 80
2020-11-10 16:00:00 19 8 Este 16 Sudeste 0 1019.4 -- 70
2020-11-10 15:00:00 19.7 9 Sudeste 19 Sudeste 0 1019.1 -- 63
2020-11-10 14:00:00 20.1 8 Sudeste 19 Este 0 1019.4 -- 63
2020-11-10 13:00:00 20.8 9 Sudeste 17 Este 0 1019.8 -- 51
2020-11-10 12:00:00 20.7 5 Sur 9 Sur 0 1020.3 -- 49
2020-11-10 11:00:00 18.5 3 Sudoeste 12 Oeste 0 1020.6 -- 56
2020-11-10 10:00:00 15.9 8 Noroeste 14 Oeste 0 1020.3 -- 64
2020-11-10 09:00:00 13.7 6 Noroeste 15 Oeste 0 1019.7 -- 74
2020-11-10 08:00:00 12.7 10 Oeste 15 Noroeste 0 1018.8 -- 76
2020-11-10 07:00:00 12.7 5 Noroeste 15 Noroeste 0 1018.2 -- 78
2020-11-10 06:00:00 13 5 Noroeste 15 Oeste 0 1017.9 -- 78
2020-11-10 05:00:00 14.1 8 Noroeste 18 Noroeste 0 1017.6 -- 75
2020-11-10 04:00:00 13.7 8 Noroeste 20 Oeste 0 1017.4 -- 80
2020-11-10 03:00:00 13.8 8 Noroeste 19 Oeste 0 1017.5 -- 84
2020-11-10 02:00:00 14.8 14 Oeste 21 Oeste 0 1017.4 -- 84
2020-11-10 01:00:00 14.8 8 Noroeste 17 Oeste 0 1017.4 -- 88
2020-11-10 00:00:00 15.4 8 Oeste 13 Oeste 0 1017.6 -- 85
2020-11-09 23:00:00 15.4 5 Noroeste 11 Oeste 0 1017.6 -- 86
2020-11-09 22:00:00 15.4 4 Oeste 9 Oeste 0 1017.5 -- 87
2020-11-09 21:00:00 15.8 3 Noroeste 7 Noroeste 0 1017.2 -- 87
2020-11-09 20:00:00 16.5 0 Calma 6 Noroeste 0 1017.2 -- 88
2020-11-09 19:00:00 16.8 3 Norte 7 Sudeste 0 1016.7 -- 87
2020-11-09 18:00:00 17.3 3 Este 9 Sudeste 0 1015.9 -- 84
2020-11-09 17:00:00 18.2 4 Nordeste 12 Este 0 1015.6 -- 73
2020-11-09 16:00:00 18.6 5 Este 15 Sudeste 0 1015.4 -- 70
2020-11-09 15:00:00 18.8 7 Sudeste 15 Este 0 1015.2 -- 68
2020-11-09 14:00:00 19.3 8 Sudeste 17 Este 0 1015.4 -- 64
2020-11-09 13:00:00 20.7 8 Sudeste 14 Sudeste 0 1015.8 -- 57
2020-11-09 12:00:00 19.6 3 Sudoeste 12 Norte 0 1016.3 -- 56
2020-11-09 11:00:00 17.3 8 Oeste 17 Oeste 0 1016.7 -- 59
2020-11-09 10:00:00 14.7 6 Noroeste 16 Noroeste 0 1016.8 -- 71
2020-11-09 09:00:00 13.1 5 Noroeste 14 Noroeste 0 1016.6 -- 77
2020-11-09 08:00:00 11.3 9 Oeste 14 Noroeste 0 1016 -- 85
2020-11-09 07:00:00 11.2 5 Noroeste 14 Noroeste 0 1015.6 -- 86
2020-11-09 06:00:00 11.3 4 Noroeste 17 Noroeste 0 1015.4 -- 87
2020-11-09 05:00:00 11.6 9 Oeste 15 Noroeste 0 1015.4 -- 87
2020-11-09 04:00:00 11.5 8 Oeste 15 Noroeste 0 1015.4 -- 91
2020-11-09 03:00:00 11.8 9 Oeste 13 Oeste 0 1015.8 -- 92
2020-11-09 02:00:00 12.1 5 Noroeste 11 Oeste 0 1015.9 -- 92
2020-11-09 01:00:00 12.3 5 Noroeste 12 Oeste 0 1016.3 -- 92
2020-11-09 00:00:00 12.7 6 Oeste 13 Noroeste 0 1016.3 -- 92
2020-11-08 23:00:00 13 8 Noroeste 12 Oeste 0 1016.3 -- 91
2020-11-08 22:00:00 13.4 9 Oeste 13 Noroeste 0 1016.3 -- 92
2020-11-08 21:00:00 13.7 5 Noroeste 8 Oeste 0 1016.3 -- 92
2020-11-08 20:00:00 14.8 3 Noroeste 5 Norte 0 1016.3 -- 92
2020-11-08 19:00:00 15.5 0 Calma 4 Norte 0 1016 -- 90
2020-11-08 18:00:00 16.7 3 Sur 9 Este 0 1015.6 -- 84
2020-11-08 17:00:00 18.1 8 Este 12 Este 0 1015.6 -- 77
2020-11-08 16:00:00 18.7 5 Sudeste 12 Este 0 1015.8 -- 70
2020-11-08 15:00:00 19.1 4 Este 9 Sur 0 1016.1 -- 70
2020-11-08 14:00:00 19.1 5 Sudeste 12 Sudeste 0 1016.6 -- 74
2020-11-08 13:00:00 19.1 4 Este 9 Sudeste 0 1017 -- 66
2020-11-08 12:00:00 19.2 4 Sudeste 8 Sudeste 0 1018 -- 62
2020-11-08 11:00:00 17.7 2 Nordeste 15 Oeste 0 1018.2 -- 68
2020-11-08 10:00:00 14.8 10 Oeste 16 Oeste 0 1018.4 -- 71
2020-11-08 09:00:00 12.4 12 Oeste 17 Noroeste 0 1018.1 -- 81
2020-11-08 08:00:00 11.7 9 Oeste 16 Noroeste 0 1017.4 -- 82
2020-11-08 07:00:00 11.5 7 Noroeste 15 Noroeste 0 1016.9 -- 84
2020-11-08 06:00:00 11.9 8 Noroeste 19 Noroeste 0 1017 -- 83
2020-11-08 05:00:00 12.3 10 Oeste 15 Noroeste 0 1017.2 -- 83
2020-11-08 04:00:00 13 6 Noroeste 16 Oeste 0 1017 -- 81
2020-11-08 03:00:00 13.3 11 Oeste 21 Oeste 0 1017 -- 82
2020-11-08 02:00:00 13.6 12 Oeste 21 Oeste 0 1017 -- 83
2020-11-08 01:00:00 13.8 9 Oeste 19 Oeste 0 1017.3 -- 83
2020-11-08 00:00:00 14.2 13 Oeste 19 Oeste 0 1017.4 -- 82
2020-11-07 23:00:00 14.4 9 Oeste 17 Oeste 0 1017.4 -- 86
2020-11-07 22:00:00 14.9 8 Noroeste 12 Noroeste 0 1017 -- 89
2020-11-07 21:00:00 15.7 5 Noroeste 12 Noroeste 0 1016.6 -- 85
2020-11-07 20:00:00 16.2 5 Sudoeste 21 Sur 0 1016.1 -- 86
2020-11-07 19:00:00 16.8 10 Sudoeste 16 Sur 0 1015.3 -- 84
2020-11-07 18:00:00 17.6 6 Sur 22 Sur 0 1014.6 -- 84
2020-11-07 17:00:00 18.6 13 Sur 23 Sudoeste 0 1014.2 -- 78
2020-11-07 16:00:00 18.4 10 Sudoeste 23 Sur 0 1014 -- 79
2020-11-07 15:00:00 18.4 12 Sur 24 Sur 0 1014.1 -- 79
2020-11-07 14:00:00 19.3 9 Sur 17 Sur 0 1014.1 -- 72
2020-11-07 13:00:00 18.7 7 Sur 14 Sudeste 0 1014.6 -- 84
2020-11-07 12:00:00 17.2 3 Sur 12 Sur 0 1014.5 -- 91
2020-11-07 11:00:00 16.4 6 Sur 14 Sudoeste 0 1014.4 -- 95
2020-11-07 10:00:00 15.1 8 Sudoeste 14 Sudoeste 0 1012.7 -- 96
2020-11-07 09:00:00 14.6 4 Sudeste 12 Noroeste 0.2 1011.3 -- 96
2020-11-07 08:00:00 14.6 7 Oeste 66 Sur 10.8 1011.8 -- 95
2020-11-07 07:00:00 18.6 14 Este 44 Oeste 1.2 1011.4 -- 96
2020-11-07 06:00:00 18.9 12 Nordeste 30 Norte 0.2 1010.1 -- 94
2020-11-07 05:00:00 18.8 17 Nordeste 32 Nordeste 0.2 1009.6 -- 93
2020-11-07 04:00:00 18.8 20 Nordeste 33 Nordeste 0.4 1010.5 -- 92
2020-11-07 03:00:00 19.2 8 Nordeste 31 Nordeste 0 1012.2 -- 89
2020-11-07 02:00:00 19.2 17 Nordeste 30 Nordeste 0 1012.2 -- 88
2020-11-07 01:00:00 19.1 14 Nordeste 30 Nordeste 0 1012.9 -- 89
2020-11-07 00:00:00 19.2 15 Nordeste 31 Nordeste 0 1013.6 -- 88
2020-11-06 23:00:00 19.1 13 Nordeste 25 Norte 0 1014 -- 89
2020-11-06 22:00:00 19.1 12 Nordeste 26 Norte 0 1014.3 -- 89
2020-11-06 21:00:00 18.9 14 Nordeste 28 Nordeste 0 1014.5 -- 90
2020-11-06 20:00:00 18.8 13 Nordeste 29 Nordeste 0 1015 -- 92
2020-11-06 19:00:00 18.8 12 Nordeste 26 Nordeste 0 1015 -- 92
2020-11-06 18:00:00 18.9 11 Nordeste 27 Nordeste 0 1014.9 -- 91
2020-11-06 17:00:00 19.1 13 Nordeste 28 Nordeste 0 1014.9 -- 91
2020-11-06 16:00:00 19.6 13 Nordeste 28 Nordeste 0 1015.1 -- 88
2020-11-06 15:00:00 19.8 14 Nordeste 31 Nordeste 0 1015.7 -- 88
2020-11-06 14:00:00 19.7 14 Nordeste 34 Norte 0 1016.2 -- 89
2020-11-06 13:00:00 19 12 Nordeste 28 Norte 0 1017 -- 91
2020-11-06 12:00:00 19 13 Nordeste 36 Nordeste 0 1017.7 -- 91
2020-11-06 11:00:00 18.8 15 Nordeste 36 Nordeste 0 1017.8 0.7 91
2020-11-06 10:00:00 18.6 15 Nordeste 28 Nordeste 0 1017.9 -- 92
2020-11-06 09:00:00 18.5 14 Nordeste 34 Nordeste 0 1017.7 -- 92
2020-11-06 08:00:00 18.4 12 Nordeste 26 Nordeste 0 1017.1 -- 94
2020-11-06 07:00:00 18.3 14 Nordeste 24 Nordeste 0.2 1016.9 -- 94
2020-11-06 06:00:00 18.1 12 Nordeste 23 Norte 0 1016.7 -- 91
2020-11-06 05:00:00 17.5 11 Nordeste 19 Norte 0 1016.6 -- 87
2020-11-06 04:00:00 16.8 3 Norte 9 Oeste 0 1016.6 -- 96
2020-11-06 03:00:00 16.5 3 Noroeste 8 Noroeste 0 1016.7 -- 96
2020-11-06 02:00:00 16.3 6 Oeste 9 Oeste 0.2 1016.6 -- 95
2020-11-06 01:00:00 16.3 6 Oeste 10 Noroeste 0 1016.9 -- 96
2020-11-06 00:00:00 16.6 3 Noroeste 13 Norte 0 1016.8 -- 95
2020-11-05 23:00:00 17.3 8 Nordeste 19 Nordeste 0.8 1016.9 -- 97
2020-11-05 22:00:00 17.4 10 Nordeste 36 Nordeste 0.4 1016.8 -- 96
2020-11-05 21:00:00 17.1 17 Nordeste 63 Nordeste 38.6 1016.3 -- 96
2020-11-05 20:00:00 17.1 24 Oeste 51 Oeste 12.6 1016.1 -- 94
2020-11-05 19:00:00 17.1 25 Nordeste 53 Norte 2 1015.6 -- 93
2020-11-05 18:00:00 17 19 Nordeste 40 Nordeste 0.2 1015.7 -- 91
2020-11-05 17:00:00 16.7 18 Nordeste 34 Nordeste 0 1016.1 -- 89
2020-11-05 16:00:00 16.5 18 Nordeste 40 Nordeste 0 1017 -- 87
2020-11-05 15:00:00 16.5 18 Nordeste 34 Nordeste 0 1017.1 -- 85
2020-11-05 14:00:00 16.7 16 Nordeste 37 Nordeste 0 1017.5 -- 83
2020-11-05 13:00:00 16.1 19 Nordeste 41 Nordeste 0 1018.4 -- 86
2020-11-05 12:00:00 15.7 15 Nordeste 30 Norte 0 1019.5 -- 83
2020-11-05 11:00:00 14.7 15 Nordeste 30 Nordeste 0 1019.4 -- 82
2020-11-05 10:00:00 14.5 16 Nordeste 29 Nordeste 0 1019.6 -- 81
2020-11-05 09:00:00 14.4 15 Norte 30 Norte 0 1019.4 -- 81
2020-11-05 08:00:00 14.7 13 Nordeste 26 Nordeste 0 1018.9 -- 79
2020-11-05 07:00:00 14.4 13 Norte 26 Norte 0 1019 -- 78
2020-11-05 06:00:00 13.9 12 Norte 21 Nordeste 0.8 1018.7 -- 83
2020-11-05 05:00:00 14 8 Norte 26 Norte 0.6 1018.5 -- 84
2020-11-05 04:00:00 14.5 15 Norte 30 Norte 0 1018.6 -- 80
2020-11-05 03:00:00 14.1 12 Norte 24 Norte 0.6 1018.5 -- 84
2020-11-05 02:00:00 14 11 Norte 32 Norte 0.4 1018.1 -- 85
2020-11-05 01:00:00 13.3 11 Norte 27 Norte 2.8 1018.2 -- 89
2020-11-05 00:00:00 13.4 13 Norte 28 Norte 1.2 1018.4 -- 89
2020-11-04 23:00:00 12.9 11 Norte 35 Nordeste 3.6 1017.8 -- 91
2020-11-04 22:00:00 12.6 15 Nordeste 41 Nordeste 4.2 1017.3 -- 92
2020-11-04 21:00:00 12.9 16 Nordeste 27 Norte 0.8 1017.1 -- 87
2020-11-04 20:00:00 13.4 10 Norte 25 Norte 0 1016.6 -- 80
2020-11-04 19:00:00 13.2 13 Norte 31 Norte 0 1015.7 -- 82
2020-11-04 18:00:00 13.4 11 Norte 28 Norte 0 1015.5 -- 82
2020-11-04 17:00:00 13.5 12 Norte 25 Norte 0 1015.3 -- 83
2020-11-04 16:00:00 13.1 10 Norte 21 Nordeste 0 1015.3 -- 88
2020-11-04 15:00:00 12.8 10 Norte 20 Norte 0.2 1015.4 -- 89
2020-11-04 14:00:00 12.2 9 Norte 24 Oeste 3.6 1015.8 -- 92
2020-11-04 13:00:00 12.2 6 Noroeste 24 Oeste 1 1015.9 -- 91
2020-11-04 12:00:00 12.1 12 Noroeste 23 Oeste 0.8 1016.4 -- 90
2020-11-04 11:00:00 12.4 4 Noroeste 10 Norte 0 1016.5 0.1 88
2020-11-04 10:00:00 12 3 Nordeste 23 Norte 5 1016.5 -- 91
2020-11-04 09:00:00 11.6 12 Norte 33 Norte 2.4 1016.7 -- 89
2020-11-04 08:00:00 11.5 13 Noroeste 25 Norte 1 1016.4 -- 87
2020-11-04 07:00:00 12.7 9 Noroeste 19 Norte 0.2 1015.7 -- 89
2020-11-04 06:00:00 12.8 8 Norte 17 Noroeste 1.4 1015.9 -- 91
2020-11-04 05:00:00 13.3 5 Noroeste 21 Nordeste 0.2 1016.6 -- 90
2020-11-04 04:00:00 14.5 12 Nordeste 22 Nordeste 0 1016.8 -- 77
2020-11-04 03:00:00 15.6 9 Oeste 18 Oeste 0 1017.8 -- 72
2020-11-04 02:00:00 17 5 Nordeste 15 Este 0 1017.8 -- 63
2020-11-04 01:00:00 17.8 4 Nordeste 13 Norte 0 1018.1 -- 52
2020-11-04 00:00:00 17.9 6 Norte 12 Norte 0 1018.4 -- 50
2020-11-03 23:00:00 18 2 Noroeste 14 Norte 0 1019.1 -- 51
2020-11-03 22:00:00 18.2 8 Norte 16 Nordeste 0 1019.4 -- 49
2020-11-03 21:00:00 18.7 8 Nordeste 13 Nordeste 0 1019.3 -- 50
2020-11-03 20:00:00 19 10 Norte 22 Norte 0 1019.3 -- 51
2020-11-03 19:00:00 18.9 3 Nordeste 13 Nordeste 0 1019.1 -- 66
2020-11-03 18:00:00 19.2 3 Este 12 Este 0 1018.7 -- 74
2020-11-03 17:00:00 19.5 4 Este 17 Este 0 1018.3 -- 78
2020-11-03 16:00:00 19.8 7 Nordeste 19 Este 0 1018.4 -- 72
2020-11-03 15:00:00 20.8 10 Este 21 Este 0 1018.4 -- 68
2020-11-03 14:00:00 21.2 8 Este 22 Este 0 1018.4 -- 65
2020-11-03 13:00:00 21.4 8 Este 17 Sudeste 0 1019 -- 62
2020-11-03 12:00:00 21.6 5 Este 15 Este 0 1019.2 -- 61
2020-11-03 11:00:00 19.9 0 Calma 8 Nordeste 0 1019.3 -- 67
2020-11-03 10:00:00 18.6 5 Norte 12 Noroeste 0 1019.2 -- 72
2020-11-03 09:00:00 17.4 3 Noroeste 13 Noroeste 0 1018.7 -- 78
2020-11-03 08:00:00 16.6 7 Noroeste 13 Oeste 0 1018 -- 83
2020-11-03 07:00:00 16.2 7 Noroeste 14 Noroeste 0 1017.6 -- 86
2020-11-03 06:00:00 16.3 8 Noroeste 15 Noroeste 0 1017.6 -- 86
2020-11-03 05:00:00 16 6 Noroeste 12 Noroeste 0 1017.4 -- 88
2020-11-03 04:00:00 16.1 6 Oeste 9 Oeste 0 1017.1 -- 87
2020-11-03 03:00:00 15.9 4 Noroeste 8 Noroeste 0 1017 -- 88
2020-11-03 02:00:00 15.9 4 Noroeste 8 Oeste 0 1016.9 -- 90
2020-11-03 01:00:00 15.7 3 Noroeste 6 Noroeste 0 1016.9 -- 92
2020-11-03 00:00:00 14.6 4 Noroeste 6 Noroeste 0 1017 -- 92
2020-11-02 23:00:00 14.8 3 Noroeste 7 Noroeste 0 1017 -- 89
2020-11-02 22:00:00 15.3 3 Oeste 8 Noroeste 0 1016.8 -- 89
2020-11-02 21:00:00 15.9 5 Noroeste 7 Noroeste 0 1016.7 -- 87
2020-11-02 20:00:00 17.4 4 Noroeste 5 Norte 0 1016.6 -- 88
2020-11-02 19:00:00 18 2 Nordeste 6 Sudeste 0 1016 -- 88
2020-11-02 18:00:00 18.8 4 Este 10 Este 0 1015.5 -- 83
2020-11-02 17:00:00 19.7 7 Este 12 Este 0 1015.3 -- 73
2020-11-02 16:00:00 20.4 7 Sudeste 17 Este 0 1015.2 -- 68
2020-11-02 15:00:00 20.8 8 Sudeste 15 Sudeste 0 1015.2 -- 69
2020-11-02 14:00:00 21.4 7 Sudeste 15 Sur 0 1015.5 -- 67
2020-11-02 13:00:00 22.1 7 Sudeste 19 Este 0 1016.2 -- 65
2020-11-02 12:00:00 21.7 5 Sudeste -- -- -- 1016.8 -- 59
2020-11-02 11:00:00 19 5 Sudeste 9 Sudeste 0 1017.2 -- 75
2020-11-02 10:00:00 16.6 4 Oeste 8 Oeste 0 1017.4 -- 68
2020-11-02 09:00:00 13.7 4 Noroeste 14 Oeste 0 1017.2 -- 73
2020-11-02 08:00:00 12.1 7 Oeste 13 Noroeste 0 1016.4 -- 77
2020-11-02 07:00:00 12.7 5 Noroeste 12 Oeste 0 1016.1 -- 84
2020-11-02 06:00:00 12.7 6 Noroeste 12 Noroeste 0 1016 -- 82
2020-11-02 05:00:00 13.2 5 Noroeste 10 Noroeste 0 1015.8 -- 81
2020-11-02 04:00:00 13.3 5 Oeste 12 Noroeste 0 1016 -- 82
2020-11-02 03:00:00 13.8 4 Noroeste 8 Noroeste 0 1016.5 -- 88
2020-11-02 02:00:00 13.6 3 Noroeste 9 Noroeste 0 1016.7 -- 84
2020-11-02 01:00:00 13.5 5 Noroeste 11 Oeste 0 1017 -- 80
2020-11-02 00:00:00 13.7 4 Noroeste 10 Noroeste 0 1017.3 -- 81
2020-11-01 23:00:00 14.1 5 Noroeste 9 Noroeste 0 1017.5 -- 80
2020-11-01 22:00:00 14.7 5 Noroeste 8 Noroeste 0 1017.4 -- 81
2020-11-01 21:00:00 15.5 3 Noroeste 8 Noroeste 0 1017.1 -- 82
2020-11-01 20:00:00 16.9 4 Noroeste 6 Noroeste 0 1016.8 -- 86
2020-11-01 19:00:00 17.8 3 Sudoeste 5 Sudoeste 0 1016.8 -- 85
2020-11-01 18:00:00 19.3 3 Sur 9 Este 0 1016.4 -- 77
2020-11-01 17:00:00 20.7 4 Sudeste 11 Sur 0 1016.4 -- 67
2020-11-01 16:00:00 21.3 6 Sudeste 14 Este 0 1016.5 -- 60
2020-11-01 15:00:00 21.8 7 Sudeste 15 Este 0 1016.6 -- 51
2020-11-01 14:00:00 22.4 8 Sudeste 14 Sur 0 1016.9 -- 54
2020-11-01 13:00:00 23 7 Sudeste 15 Este 0 1017.5 -- 55
2020-11-01 12:00:00 22.9 5 Sudeste 10 Sudeste 0 1018.3 -- 46
2020-11-01 11:00:00 19.3 3 Sudeste 8 Sudeste 0 1018.5 -- 60
2020-11-01 10:00:00 15.7 3 Sudoeste 7 Noroeste 0 1018.5 -- 78
2020-11-01 09:00:00 12.9 4 Noroeste 10 Oeste 0 1018.4 -- 75
2020-11-01 08:00:00 12 5 Noroeste 13 Noroeste 0 1017.9 -- 75
2020-11-01 07:00:00 11.8 5 Oeste 11 Noroeste 0 1017.4 -- 76
2020-11-01 06:00:00 11.9 6 Oeste 11 Oeste 0 1017.6 -- 76
2020-11-01 05:00:00 12 4 Noroeste 10 Oeste 0 1017.6 -- 77
2020-11-01 04:00:00 12.3 5 Noroeste 13 Noroeste 0 1017.6 -- 77
2020-11-01 03:00:00 12.6 6 Noroeste 12 Oeste 0 1017.6 -- 81
2020-11-01 02:00:00 13 5 Oeste 12 Noroeste 0 1017.7 -- 78
2020-11-01 01:00:00 13.8 4 Noroeste 12 Noroeste 0 1017.8 -- 81
2020-11-01 00:00:00 14.6 8 Oeste 13 Oeste 0 1018.1 -- 79
2020-10-31 23:00:00 15.3 8 Oeste 13 Noroeste 0 1018.2 -- 82
2020-10-31 22:00:00 15.3 6 Oeste 15 Oeste 0 1018.4 -- 86
2020-10-31 21:00:00 15.6 4 Noroeste 9 Noroeste 0 1018.4 -- 89
2020-10-31 20:00:00 16.8 3 Noroeste 8 Noroeste 0 1018.1 -- 89
2020-10-31 19:00:00 17.5 2 Sudoeste 8 Sur 0 1017.7 -- 88
2020-10-31 18:00:00 18.7 5 Sur 9 Sur 0 1017.5 -- 82
2020-10-31 17:00:00 19.9 6 Sur 12 Sur 0 1017.3 -- 73
2020-10-31 16:00:00 20.4 6 Sudeste 13 Sudeste 0 1017.3 -- 63
2020-10-31 15:00:00 21 7 Sudeste 16 Este 0 1017.1 -- 60
2020-10-31 14:00:00 21.6 7 Sudeste 15 Sur 0 1017.7 -- 54
2020-10-31 13:00:00 22.3 6 Sudeste 16 Este 0 1018.3 -- 55
2020-10-31 12:00:00 22.1 8 Sudeste 14 Sudeste 0 1019.1 -- 55
2020-10-31 11:00:00 19.4 4 Sudeste 9 Oeste 0 1019.2 -- 59
2020-10-31 10:00:00 16.3 7 Oeste 15 Oeste 0 1019.5 -- 56
2020-10-31 09:00:00 13.7 10 Oeste 19 Oeste 0 1019.3 -- 64
2020-10-31 08:00:00 12.7 10 Oeste 18 Oeste 0 1019 -- 69
2020-10-31 07:00:00 12.4 9 Noroeste 18 Oeste 0 1018.6 -- 74
2020-10-31 06:00:00 12.3 6 Noroeste 15 Oeste 0 1018.6 -- 79
2020-10-31 05:00:00 12.8 7 Oeste 13 Oeste 0 1018.6 -- 77
2020-10-31 04:00:00 12.9 6 Noroeste 15 Oeste 0 1018.6 -- 79
2020-10-31 03:00:00 13.1 9 Oeste 15 Oeste 0 1018.9 -- 80
2020-10-31 02:00:00 13.4 10 Oeste 16 Oeste 0 1019.2 -- 81
2020-10-31 01:00:00 13.5 6 Noroeste 13 Oeste 0 1019.4 -- 81
2020-10-31 00:00:00 13.7 8 Noroeste 13 Oeste 0 1019.6 -- 81
2020-10-30 23:00:00 14.2 7 Oeste 14 Noroeste 0 1019.8 -- 81
2020-10-30 22:00:00 14.7 3 Oeste 12 Oeste 0 1019.7 -- 81
2020-10-30 21:00:00 15.1 5 Noroeste 9 Oeste 0 1019.5 -- 80
2020-10-30 20:00:00 16.2 2 Oeste 7 Noroeste 0 1019.6 -- 80
2020-10-30 19:00:00 17.1 3 Sur 5 Sur 0 1019.5 -- 80
2020-10-30 18:00:00 18.6 3 Sudeste 11 Este 0 1019.1 -- 73
2020-10-30 17:00:00 19.7 6 Sudeste 13 Este 0 1018.7 -- 65
2020-10-30 16:00:00 20.4 6 Sudeste 14 Este 0 1018.7 -- 59
2020-10-30 15:00:00 20.9 7 Sudeste 15 Sudeste 0 1018.7 -- 60
2020-10-30 14:00:00 21.5 8 Sudeste 14 Este 0 1019 -- 56
2020-10-30 13:00:00 22 6 Sudeste 16 Este 0 1019.7 -- 57
2020-10-30 12:00:00 21.8 5 Sudeste 10 Sudeste 0 1020.5 -- 49
2020-10-30 11:00:00 19 5 Sudoeste 10 Sur 0 1020.8 -- 52
2020-10-30 10:00:00 15.7 4 Oeste 17 Oeste 0 1020.8 -- 66
2020-10-30 09:00:00 13.7 10 Oeste 17 Oeste 0 1020.6 -- 74
2020-10-30 08:00:00 12.6 8 Oeste 17 Oeste 0 1020.1 -- 80
2020-10-30 07:00:00 12.7 9 Oeste 17 Oeste 0 1019.8 -- 74
2020-10-30 06:00:00 12.3 7 Oeste 17 Noroeste 0 1019.9 -- 77
2020-10-30 05:00:00 13.1 9 Oeste 16 Noroeste 0 1019.9 -- 79
2020-10-30 04:00:00 13.2 10 Oeste 17 Noroeste 0 1020 -- 80
2020-10-30 03:00:00 13.5 7 Oeste 15 Oeste 0 1020.3 -- 82
2020-10-30 02:00:00 13.5 9 Noroeste 17 Noroeste 0 1020.5 -- 82
2020-10-30 01:00:00 13.7 7 Oeste 14 Oeste 0 1020.6 -- 83
2020-10-30 00:00:00 14.2 7 Oeste 13 Noroeste 0 1020.8 -- 82
2020-10-29 23:00:00 14.6 8 Oeste 11 Oeste 0 1020.9 -- 82
2020-10-29 22:00:00 15.2 6 Oeste 10 Noroeste 0 1020.8 -- 83
2020-10-29 21:00:00 16.2 5 Noroeste 7 Noroeste 0 1020.4 -- 81
2020-10-29 20:00:00 17 0 Calma 5 Sur 0 1020.4 -- 82
2020-10-29 19:00:00 17.8 3 Sur 7 Sur 0 1020.1 -- 78
2020-10-29 18:00:00 19 4 Sur 10 Sudeste 0 1019.5 -- 70
2020-10-29 17:00:00 20 6 Este 14 Sudeste 0 1019.3 -- 65
2020-10-29 16:00:00 20.7 9 Sudeste 18 Sudeste 0 1019.3 -- 56
2020-10-29 15:00:00 21 11 Sudeste 20 Este 0 1019.5 -- 59
2020-10-29 14:00:00 21.6 12 Este 22 Sudeste 0 1019.9 -- 55
2020-10-29 13:00:00 22.1 7 Sudeste 17 Sudeste 0 1020.5 -- 53
2020-10-29 12:00:00 21.6 7 Sudeste 18 Sudeste 0 1021 -- 62
2020-10-29 11:00:00 19.9 6 Este 15 Este 0 1021.6 -- 65
2020-10-29 10:00:00 17.5 5 Este 10 Sudeste 0 1021.5 -- 65
2020-10-29 09:00:00 15.3 6 Oeste 15 Noroeste 0 1020.8 -- 64
2020-10-29 08:00:00 14 10 Oeste 18 Oeste 0 1020.2 -- 67
2020-10-29 07:00:00 13.9 9 Oeste 19 Oeste 0 1019.3 -- 67
2020-10-29 06:00:00 13.5 9 Noroeste 17 Noroeste 0 1019 -- 69
2020-10-29 05:00:00 13.5 7 Noroeste 15 Oeste 0 1018.7 -- 68
2020-10-29 04:00:00 13.7 6 Noroeste 17 Noroeste 0 1018.4 -- 67
2020-10-29 03:00:00 13.7 9 Noroeste 18 Oeste 0 1018.3 -- 66
2020-10-29 02:00:00 13.8 11 Oeste 19 Noroeste 0 1017.9 -- 66
2020-10-29 01:00:00 14.2 9 Oeste 18 Oeste 0 1017.9 -- 64
2020-10-29 00:00:00 14.1 6 Noroeste 14 Noroeste 0 1017.8 -- 65
2020-10-28 23:00:00 14.6 5 Oeste 11 Oeste 0 1017.9 -- 64
2020-10-28 22:00:00 15.4 2 Noroeste 9 Oeste 0 1017.7 -- 63
2020-10-28 21:00:00 16.6 5 Oeste 8 Oeste 0 1017.2 -- 65
2020-10-28 20:00:00 17.3 0 Calma 5 Sur 0 1016.8 -- 69
2020-10-28 19:00:00 18.3 2 Este 6 Este 0 1016.1 -- 64
2020-10-28 18:00:00 19.3 3 Nordeste 8 Sudeste 0 1015.2 -- 58
2020-10-28 17:00:00 20.2 5 Este 14 Sur 0 1014.8 -- 56
2020-10-28 16:00:00 21.4 8 Sudeste 17 Sudeste 0 1014.8 -- 44
2020-10-28 15:00:00 21.8 9 Sudeste 18 Sudeste 0 1014.5 -- 43
2020-10-28 14:00:00 22 8 Sudeste 17 Este 0 1014.5 -- 42
2020-10-28 13:00:00 23.1 9 Sur 18 Sudeste 0 1014.8 -- 37
2020-10-28 12:00:00 22.6 6 Sudeste 16 Sudeste 0 1015.4 -- 37
2020-10-28 11:00:00 20.3 6 Sudeste 12 Este 0 1015.1 -- 44
2020-10-28 10:00:00 17.5 3 Este 10 Noroeste 0 1015.3 -- 48
2020-10-28 09:00:00 15.3 5 Noroeste 14 Oeste 0 1014.9 -- 51
2020-10-28 08:00:00 13.7 10 Oeste 17 Noroeste 0 1013.9 -- 53
2020-10-28 07:00:00 13.5 10 Oeste 14 Oeste 0 1013.2 -- 55
2020-10-28 06:00:00 13.2 9 Oeste 15 Oeste 0 1012.7 -- 56
2020-10-28 05:00:00 12.8 11 Oeste 19 Oeste 0 1012.3 -- 56
2020-10-28 04:00:00 12.8 7 Oeste 13 Oeste 0 1012.1 -- 56
2020-10-28 03:00:00 13 8 Oeste 16 Oeste 0 1012 -- 54
2020-10-28 02:00:00 13.4 8 Oeste 21 Oeste 0 1012 -- 52
2020-10-28 01:00:00 13.5 15 Oeste 22 Oeste 0 1012.2 -- 51
2020-10-28 00:00:00 13.6 9 Oeste 18 Noroeste 0 1012.2 -- 52
2020-10-27 23:00:00 14.2 10 Oeste 17 Noroeste 0 1012.3 -- 50
2020-10-27 22:00:00 14.8 10 Oeste 22 Noroeste 0 1012.1 -- 47
2020-10-27 21:00:00 15 8 Noroeste 17 Oeste 0 1011.7 -- 49
2020-10-27 20:00:00 16.5 6 Noroeste 15 Nordeste 0 1011.3 -- 48
2020-10-27 19:00:00 17.6 11 Nordeste 17 Nordeste 0 1010.9 -- 45
2020-10-27 18:00:00 18.1 7 Nordeste 12 Este 0 1010.5 -- 49
2020-10-27 17:00:00 19.2 7 Este 15 Este 0 1010.3 -- 43
2020-10-27 16:00:00 19.5 9 Sudeste 21 Sur 0 1010.5 -- 36
2020-10-27 15:00:00 19.7 10 Sur 22 Sudeste 0 1010.8 -- 35
2020-10-27 14:00:00 20 10 Sur 22 Sudeste 0 1011.4 -- 34
2020-10-27 13:00:00 20.8 10 Sudeste 20 Este 0 1011.9 -- 27
2020-10-27 12:00:00 20.5 5 Sur 13 Sur 0 1012.7 -- 27
2020-10-27 11:00:00 17.5 3 Norte 14 Oeste 0 1012.9 -- 34
2020-10-27 10:00:00 14.5 8 Oeste 15 Oeste 0 1012.9 -- 43
2020-10-27 09:00:00 12.2 6 Noroeste 14 Oeste 0 1012.7 -- 49
2020-10-27 08:00:00 11.3 4 Noroeste 15 Noroeste 0 1012 -- 50
2020-10-27 07:00:00 11 7 Noroeste 14 Noroeste 0 1011.8 -- 50
2020-10-27 06:00:00 10.1 9 Oeste 15 Oeste 0 1011.5 -- 53
2020-10-27 05:00:00 9.8 8 Oeste 13 Oeste 0 1011.3 -- 54
2020-10-27 04:00:00 10.9 6 Oeste 13 Oeste 0 1011.2 -- 50
2020-10-27 03:00:00 11.3 8 Oeste 15 Oeste 0 1011.9 -- 49
2020-10-27 02:00:00 13.4 10 Oeste 18 Oeste 0 1012.4 -- 40
2020-10-27 01:00:00 11.7 2 Noroeste 11 Noroeste 0 1012.4 -- 47
2020-10-27 00:00:00 12.7 5 Noroeste 20 Oeste 0 1012.7 -- 44
2020-10-26 23:00:00 14.3 11 Oeste 17 Oeste 0 1012.6 -- 39
2020-10-26 22:00:00 15.8 10 Oeste 25 Oeste 0 1012.2 -- 35
2020-10-26 21:00:00 16.4 15 Oeste 24 Oeste 0 1011.7 -- 34
2020-10-26 20:00:00 17.1 14 Oeste 26 Oeste 0 1011.4 -- 33
2020-10-26 19:00:00 17.9 12 Oeste 29 Oeste 0 1010.7 -- 28
2020-10-26 18:00:00 19.1 15 Oeste 32 Oeste 0 1009.6 -- 28
2020-10-26 17:00:00 20.2 16 Oeste 31 Oeste 0 1008.6 -- 26
2020-10-26 16:00:00 20.7 13 Oeste 43 Noroeste 0 1008 -- 24
2020-10-26 15:00:00 20.8 17 Oeste 32 Oeste 0 1007.6 -- 26
2020-10-26 14:00:00 20.3 17 Oeste 30 Oeste 0 1007.4 -- 26
2020-10-26 13:00:00 20 18 Oeste 35 Oeste 0 1007.8 -- 28
2020-10-26 12:00:00 19.6 19 Oeste 33 Noroeste 0 1008 -- 29
2020-10-26 11:00:00 18.7 15 Noroeste 34 Oeste 0 1007.8 -- 29
2020-10-26 10:00:00 16.6 12 Oeste 30 Oeste 0 1007.5 -- 35
2020-10-26 09:00:00 15.3 13 Oeste 26 Oeste 0 1007.1 -- 41
2020-10-26 08:00:00 14.6 9 Oeste 18 Noroeste 0 1006.5 -- 45
2020-10-26 07:00:00 15.8 7 Noroeste 24 Noroeste 0 1005.6 -- 43
2020-10-26 06:00:00 17.6 13 Oeste 28 Oeste 0 1004.7 -- 40
2020-10-26 05:00:00 18.4 15 Oeste 31 Sudoeste 0 1004.2 -- 45
2020-10-26 04:00:00 19.1 13 Noroeste 25 Sudoeste 0 1003.3 -- 43
2020-10-26 03:00:00 19.3 15 Oeste 26 Oeste 0 1003.3 -- 47
2020-10-26 02:00:00 18.5 10 Sudoeste 22 Sudoeste 0 1002.9 -- 56
2020-10-26 01:00:00 19.1 10 Sudoeste 28 Sudoeste 0 1003.4 -- 54
2020-10-26 00:00:00 19.5 18 Sudoeste 32 Sudoeste 0 1003.7 -- 50
2020-10-25 23:00:00 19.4 14 Sudoeste 34 Sudoeste 0 1003.8 -- 48
2020-10-25 22:00:00 19.7 13 Sudoeste 34 Sudoeste 0 1004.2 -- 46
2020-10-25 21:00:00 21 18 Sudoeste 33 Sudoeste 0 1004.5 -- 41
2020-10-25 20:00:00 21.1 10 Sudoeste 22 Sudoeste 0 1005.2 -- 40
2020-10-25 19:00:00 21.9 10 Sudoeste 33 Sudoeste 0 1005.4 -- 38
2020-10-25 18:00:00 22.7 16 Sudoeste 32 Sudoeste 0 1005.3 -- 36
2020-10-25 17:00:00 24.4 19 Sudoeste 40 Oeste 0 1005.1 -- 31
2020-10-25 16:00:00 25.7 23 Oeste 49 Sudoeste 0 1005.3 -- 28
2020-10-25 15:00:00 26.4 18 Sudoeste 44 Sudoeste 0 1005.2 -- 25
2020-10-25 14:00:00 25.4 18 Sudoeste 32 Sur 0 1006.3 -- 31
2020-10-25 13:00:00 25 18 Sur 33 Sur 0 1007.8 -- 31
2020-10-25 12:00:00 24.2 10 Sur 19 Sudoeste 0 1009.2 -- 31
2020-10-25 11:00:00 20.9 6 Sur 13 Sudoeste 0 1010.1 -- 37
2020-10-25 10:00:00 18.5 8 Sudoeste 16 Sudoeste 0 1010.8 -- 42
2020-10-25 09:00:00 18.5 10 Sudoeste 29 Oeste 0 1010.9 -- 42
2020-10-25 08:00:00 17.8 15 Oeste 30 Oeste 0 1010.6 -- 40
2020-10-25 07:00:00 16.1 13 Oeste 22 Oeste 0 1010.5 -- 48
2020-10-25 06:00:00 15.3 10 Oeste 18 Oeste 0 1010.7 -- 53
2020-10-25 05:00:00 15.4 8 Oeste 14 Oeste 0 1011 -- 52
2020-10-25 04:00:00 15.6 4 Noroeste 16 Oeste 0 1011.2 -- 52
2020-10-25 03:00:00 15.9 6 Oeste 21 Noroeste 0 1011.9 -- 51
2020-10-25 02:00:00 17.2 9 Noroeste 25 Oeste 0 1012.3 -- 47
2020-10-25 01:00:00 16 9 Oeste 18 Oeste 0 1013.2 -- 55
2020-10-25 00:00:00 16.1 12 Oeste 17 Oeste 0 1013.7 -- 57